Terminal Aerodrome Forecast
Issued by NWS

Home | Current Version | Previous Version | Graphics & Text | Print | Product List | Glossary On
Versions: 1 2 3 4 5 6 7 8 9 10 11 12 13 14 15 16 17
000
FTUS41 KCLE 081100
TAFFDY
TAF
KFDY 081120Z 0812/0912 21008KT 5SM BR OVC006
     FM081300 23014G22KT 4SM -TSRA BR SCT006 OVC012CB
      TEMPO 0813/0815 2SM TSRA BR OVC006CB
     FM081500 25015G25KT P6SM BKN035
     FM082100 27008KT P6SM VCTS SCT025 OVC040CB
     FM090000 28006KT P6SM FEW100 SCT250=

USA.gov is the U.S. government's official web portal to all federal, state and local government web resources and services.